Time;durP1;ratioP1;P1;durP2;ratioP2;P2;SDS_P1;SDS_P2;PMS_P1;PMS_P2;Temp;Humidity;BMP_temperature;BMP_pressure;BME280_temperature;BME280_humidity;BME280_pressure;Samples;Min_cycle;Max_cycle;Signal;HPM_P1;HPM_P2
2021/07/28 00:02:05;;;;;;;;;;;16.60;99.90;;;;;;5062619;28;19917;-78
2021/07/28 00:04:34;;;;;;;;;;;16.60;99.90;;;;;;5062782;28;19920;-78
2021/07/28 00:07:00;;;;;;;;;;;16.60;99.90;;;;;;5065923;28;19921;-78
2021/07/28 00:09:25;;;;;;;;;;;16.60;99.90;;;;;;5066367;28;19920;-78
2021/07/28 00:11:51;;;;;;;;;;;16.50;99.90;;;;;;5068786;28;19912;-78
2021/07/28 00:14:16;;;;;;;;;;;16.50;99.90;;;;;;5063532;28;19974;-78
2021/07/28 00:16:42;;;;;;;;;;;16.50;99.90;;;;;;5061402;28;19944;-78
2021/07/28 00:24:20;;;;;;;;;;;16.50;99.90;;;;;;5062715;28;20094;-78
2021/07/28 00:26:45;;;;;;;;;;;16.50;99.90;;;;;;5066419;28;19912;-78
2021/07/28 00:29:11;;;;;;;;;;;16.50;99.90;;;;;;5063958;28;19917;-78
2021/07/28 00:31:36;;;;;;;;;;;16.50;99.90;;;;;;5069016;28;19912;-78
2021/07/28 00:34:02;;;;;;;;;;;16.40;99.90;;;;;;5065534;28;19916;-78
2021/07/28 00:36:27;;;;;;;;;;;16.50;99.90;;;;;;5069176;28;20639;-78
2021/07/28 00:38:53;;;;;;;;;;;16.50;99.90;;;;;;5065023;28;19916;-78
2021/07/28 00:41:19;;;;;;;;;;;16.40;99.90;;;;;;5078815;28;19913;-78
2021/07/28 00:43:44;;;;;;;;;;;16.40;99.90;;;;;;5077756;28;19924;-78
2021/07/28 00:46:10;;;;;;;;;;;16.40;99.90;;;;;;5086535;28;19923;-78
2021/07/28 00:48:35;;;;;;;;;;;16.40;99.90;;;;;;5088919;28;19956;-78
2021/07/28 00:51:01;;;;;;;;;;;16.50;99.90;;;;;;5084740;28;19908;-78
2021/07/28 00:53:27;;;;;;;;;;;16.40;99.90;;;;;;5086124;28;19901;-78
2021/07/28 00:55:53;;;;;;;;;;;16.40;99.90;;;;;;5086164;28;19972;-78
2021/07/28 00:58:19;;;;;;;;;;;16.40;99.90;;;;;;5083625;28;19901;-78
2021/07/28 01:00:45;;;;;;;;;;;16.40;99.90;;;;;;5086779;28;20281;-78
2021/07/28 01:03:10;;;;;;;;;;;16.40;99.90;;;;;;5088037;28;19916;-78
2021/07/28 01:05:36;;;;;;;;;;;16.40;99.90;;;;;;5087294;28;19924;-78
2021/07/28 01:08:02;;;;;;;;;;;16.40;99.90;;;;;;5091072;28;19928;-79
2021/07/28 01:10:27;;;;;;;;;;;16.40;99.90;;;;;;5093724;28;19912;-78
2021/07/28 01:12:54;;;;;;;;;;;16.40;99.90;;;;;;5093799;28;19920;-78
2021/07/28 01:18:02;;;;;;;;;;;16.40;99.90;;;;;;5093311;28;19901;-78
2021/07/28 01:20:32;;;;;;;;;;;16.40;99.90;;;;;;5114503;28;19908;-77
2021/07/28 01:22:59;;;;;;;;;;;16.40;99.90;;;;;;5088707;28;19917;-78
2021/07/28 01:25:25;;;;;;;;;;;16.40;99.90;;;;;;5094907;28;19912;-78
2021/07/28 01:27:51;;;;;;;;;;;16.40;99.90;;;;;;5091747;28;19971;-78
2021/07/28 01:30:17;;;;;;;;;;;16.40;99.90;;;;;;5090686;28;19905;-78
2021/07/28 01:32:42;;;;;;;;;;;16.40;99.90;;;;;;5095837;28;20361;-78
2021/07/28 01:35:08;;;;;;;;;;;16.40;99.90;;;;;;5091646;28;19988;-77
2021/07/28 01:37:34;;;;;;;;;;;16.40;99.90;;;;;;5086766;28;19901;-73
2021/07/28 01:40:00;;;;;;;;;;;16.40;99.90;;;;;;5076223;28;20391;-77
2021/07/28 01:42:25;;;;;;;;;;;16.40;99.90;;;;;;5073989;28;19958;-79
2021/07/28 01:44:51;;;;;;;;;;;16.40;99.90;;;;;;5077711;28;19912;-79
2021/07/28 01:47:16;;;;;;;;;;;16.40;99.90;;;;;;5070098;28;20369;-79
2021/07/28 01:49:42;;;;;;;;;;;16.40;99.90;;;;;;5067470;28;19999;-78
2021/07/28 01:52:07;;;;;;;;;;;16.50;99.90;;;;;;5069348;28;19913;-78
2021/07/28 01:54:33;;;;;;;;;;;16.40;99.90;;;;;;5065599;28;19917;-78
2021/07/28 01:56:58;;;;;;;;;;;16.40;99.90;;;;;;5071156;28;20376;-77
2021/07/28 01:59:25;;;;;;;;;;;16.40;99.90;;;;;;5071138;28;19912;-79
2021/07/28 02:01:51;;;;;;;;;;;16.40;99.90;;;;;;5068035;28;19912;-78
2021/07/28 02:04:16;;;;;;;;;;;16.40;99.90;;;;;;5065807;28;19959;-78
2021/07/28 02:06:42;;;;;;;;;;;16.40;99.90;;;;;;5067003;28;19913;-79
2021/07/28 02:09:08;;;;;;;;;;;16.40;99.90;;;;;;5066520;28;20007;-79
2021/07/28 02:11:35;;;;;;;;;;;16.40;99.90;;;;;;5063329;28;19948;-78
2021/07/28 02:14:00;;;;;;;;;;;16.40;99.90;;;;;;5071643;28;20363;-79
2021/07/28 02:16:25;;;;;;;;;;;16.50;99.90;;;;;;5061304;28;19996;-78
2021/07/28 02:18:51;;;;;;;;;;;16.50;99.90;;;;;;5069841;28;19999;-79
2021/07/28 02:21:16;;;;;;;;;;;16.50;99.90;;;;;;5070236;28;20343;-79
2021/07/28 02:23:42;;;;;;;;;;;16.50;99.90;;;;;;5066390;28;19962;-79
2021/07/28 02:26:07;;;;;;;;;;;16.50;99.90;;;;;;5066150;28;20390;-79
2021/07/28 02:28:33;;;;;;;;;;;16.50;99.90;;;;;;5061930;28;19920;-79
2021/07/28 02:30:58;;;;;;;;;;;16.60;99.90;;;;;;5065158;28;19913;-79
2021/07/28 02:33:24;;;;;;;;;;;16.60;99.90;;;;;;5068339;28;19966;-80
2021/07/28 02:35:49;;;;;;;;;;;16.60;99.90;;;;;;5070775;28;20006;-78
2021/07/28 02:38:15;;;;;;;;;;;16.60;99.90;;;;;;5063307;28;20012;-77
2021/07/28 02:40:40;;;;;;;;;;;16.60;99.90;;;;;;5067923;28;20349;-79
2021/07/28 02:43:06;;;;;;;;;;;16.70;99.90;;;;;;5062443;28;19966;-79
2021/07/28 02:45:33;;;;;;;;;;;16.60;99.90;;;;;;5069276;28;19917;-79
2021/07/28 02:48:02;;;;;;;;;;;16.60;99.90;;;;;;5065501;28;19912;-79
2021/07/28 02:50:27;;;;;;;;;;;16.60;99.90;;;;;;5060456;28;20388;-80
2021/07/28 02:52:53;;;;;;;;;;;16.60;99.90;;;;;;5065078;28;19913;-79
2021/07/28 02:55:18;;;;;;;;;;;16.60;99.90;;;;;;5062095;28;19982;-79
2021/07/28 02:57:44;;;;;;;;;;;16.60;99.90;;;;;;5067552;28;19977;-79
2021/07/28 03:00:10;;;;;;;;;;;16.70;99.90;;;;;;5065059;28;20010;-79
2021/07/28 03:02:36;;;;;;;;;;;16.70;99.90;;;;;;5064929;28;20357;-79
2021/07/28 03:05:02;;;;;;;;;;;16.70;99.90;;;;;;5065581;28;19919;-79
2021/07/28 03:07:27;;;;;;;;;;;16.70;99.90;;;;;;5067174;28;19912;-79
2021/07/28 03:09:53;;;;;;;;;;;16.70;99.90;;;;;;5065995;28;19912;-79
2021/07/28 03:12:18;;;;;;;;;;;16.70;99.90;;;;;;5066600;28;19919;-79
2021/07/28 03:14:44;;;;;;;;;;;16.70;99.90;;;;;;5068547;28;19916;-79
2021/07/28 03:17:09;;;;;;;;;;;16.70;99.90;;;;;;5068161;28;19920;-79
2021/07/28 03:19:35;;;;;;;;;;;16.70;99.90;;;;;;5060850;28;19924;-79
2021/07/28 03:22:00;;;;;;;;;;;16.80;99.90;;;;;;5066558;28;20419;-79
2021/07/28 03:24:26;;;;;;;;;;;16.80;99.90;;;;;;5066396;28;19982;-79
2021/07/28 03:26:51;;;;;;;;;;;16.80;99.90;;;;;;5061123;28;19920;-79
2021/07/28 03:29:17;;;;;;;;;;;16.80;99.90;;;;;;5062083;28;20408;-79
2021/07/28 03:31:42;;;;;;;;;;;16.80;99.90;;;;;;5064215;28;20012;-79
2021/07/28 03:34:08;;;;;;;;;;;16.80;99.90;;;;;;5066226;28;19960;-79
2021/07/28 03:36:33;;;;;;;;;;;16.80;99.90;;;;;;5058567;28;20030;-80
2021/07/28 03:38:59;;;;;;;;;;;16.80;99.90;;;;;;5066287;28;20301;-80
2021/07/28 03:41:24;;;;;;;;;;;16.80;99.90;;;;;;5061421;28;19952;-80
2021/07/28 03:43:50;;;;;;;;;;;16.90;99.90;;;;;;5068840;28;19983;-80
2021/07/28 03:46:15;;;;;;;;;;;16.90;99.90;;;;;;5061066;28;20420;-78
2021/07/28 03:48:41;;;;;;;;;;;16.90;99.90;;;;;;5066569;28;19952;-79
2021/07/28 03:51:06;;;;;;;;;;;16.90;99.90;;;;;;5063150;28;20276;-79
2021/07/28 03:53:34;;;;;;;;;;;16.90;99.90;;;;;;5068161;28;19928;-79
2021/07/28 03:55:59;;;;;;;;;;;16.90;99.90;;;;;;5061322;28;19939;-79
2021/07/28 03:58:25;;;;;;;;;;;16.90;99.90;;;;;;5066255;28;19913;-79
2021/07/28 04:00:50;;;;;;;;;;;16.90;99.90;;;;;;5058701;28;19913;-79
2021/07/28 04:03:16;;;;;;;;;;;16.90;99.90;;;;;;5067770;28;19951;-79
2021/07/28 04:05:41;;;;;;;;;;;16.90;99.90;;;;;;5061001;28;19912;-79
2021/07/28 04:08:07;;;;;;;;;;;16.90;99.90;;;;;;5055182;28;19913;-79
2021/07/28 04:10:32;;;;;;;;;;;16.90;99.90;;;;;;5062064;28;19975;-79
2021/07/28 04:12:58;;;;;;;;;;;16.90;99.90;;;;;;5059074;28;19913;-79
2021/07/28 04:15:23;;;;;;;;;;;16.90;99.90;;;;;;5059507;28;19931;-79
2021/07/28 04:17:49;;;;;;;;;;;16.90;99.90;;;;;;5064797;28;19920;-80
2021/07/28 04:20:14;;;;;;;;;;;16.90;99.90;;;;;;5069163;28;19916;-79
2021/07/28 04:22:40;;;;;;;;;;;16.90;99.90;;;;;;5058846;28;19928;-79
2021/07/28 04:25:06;;;;;;;;;;;16.90;99.90;;;;;;5065056;28;20387;-79
2021/07/28 04:27:32;;;;;;;;;;;16.90;99.90;;;;;;5066492;28;19912;-80
2021/07/28 04:29:58;;;;;;;;;;;16.90;99.90;;;;;;5066344;28;20016;-79
2021/07/28 04:32:23;;;;;;;;;;;16.90;99.90;;;;;;5065031;28;19912;-79
2021/07/28 04:34:49;;;;;;;;;;;17.00;99.90;;;;;;5065668;28;20013;-79
2021/07/28 04:37:15;;;;;;;;;;;17.00;99.90;;;;;;5061059;28;20300;-80
2021/07/28 04:39:40;;;;;;;;;;;17.00;99.90;;;;;;5058146;28;19920;-80
2021/07/28 04:42:06;;;;;;;;;;;17.00;99.90;;;;;;5058363;28;19912;-79
2021/07/28 04:44:31;;;;;;;;;;;17.00;99.90;;;;;;5081303;28;20280;-80
2021/07/28 04:46:57;;;;;;;;;;;17.00;99.90;;;;;;5061342;28;20077;-80
2021/07/28 04:49:23;;;;;;;;;;;17.00;99.90;;;;;;5068814;28;19920;-80
2021/07/28 04:51:48;;;;;;;;;;;17.00;99.90;;;;;;5065465;28;19999;-80
2021/07/28 04:54:14;;;;;;;;;;;17.00;99.90;;;;;;5062901;28;19966;-80
2021/07/28 04:56:39;;;;;;;;;;;17.10;99.90;;;;;;5061318;28;19913;-80
2021/07/28 04:59:05;;;;;;;;;;;17.10;99.90;;;;;;5058913;28;19919;-80
2021/07/28 05:01:30;;;;;;;;;;;17.10;99.90;;;;;;5059502;28;20000;-80
2021/07/28 05:03:56;;;;;;;;;;;17.10;99.90;;;;;;5062841;28;20639;-80
2021/07/28 05:06:22;;;;;;;;;;;17.10;99.90;;;;;;5058701;28;19973;-79
2021/07/28 05:08:48;;;;;;;;;;;17.20;99.90;;;;;;5062439;28;19990;-79
2021/07/28 05:11:13;;;;;;;;;;;17.20;99.90;;;;;;5058439;28;19913;-80
2021/07/28 05:13:39;;;;;;;;;;;17.30;99.90;;;;;;5061840;28;19973;-80
2021/07/28 05:16:04;;;;;;;;;;;17.30;99.90;;;;;;5062327;28;19921;-80
2021/07/28 05:18:30;;;;;;;;;;;17.40;99.90;;;;;;5057662;28;19920;-80
2021/07/28 05:20:57;;;;;;;;;;;17.40;99.90;;;;;;5063405;28;19951;-80
2021/07/28 05:23:22;;;;;;;;;;;17.40;99.90;;;;;;5058642;28;19913;-79
2021/07/28 05:25:48;;;;;;;;;;;17.40;99.90;;;;;;5059939;28;20399;-79
2021/07/28 05:28:13;;;;;;;;;;;17.40;99.90;;;;;;5062557;28;19920;-79
2021/07/28 05:30:39;;;;;;;;;;;17.40;99.90;;;;;;5063689;28;20000;-80
2021/07/28 05:33:04;;;;;;;;;;;17.40;99.90;;;;;;5084513;28;19917;-80
2021/07/28 05:35:30;;;;;;;;;;;17.40;99.90;;;;;;5062252;28;20349;-80
2021/07/28 05:38:02;;;;;;;;;;;17.40;99.90;;;;;;5062601;28;19939;-80
2021/07/28 05:40:28;;;;;;;;;;;17.50;99.90;;;;;;5064592;28;20376;-80
2021/07/28 05:42:54;;;;;;;;;;;17.50;99.90;;;;;;5064580;28;19995;-79
2021/07/28 05:45:25;;;;;;;;;;;17.50;99.90;;;;;;5056338;28;19962;-79
2021/07/28 05:47:51;;;;;;;;;;;17.60;99.90;;;;;;5076723;28;19919;-80
2021/07/28 05:50:16;;;;;;;;;;;17.70;99.90;;;;;;5061031;28;19913;-80
2021/07/28 05:52:42;;;;;;;;;;;17.80;99.90;;;;;;5063305;28;19924;-80
2021/07/28 05:55:08;;;;;;;;;;;17.90;99.90;;;;;;5063902;28;20007;-80
2021/07/28 05:57:33;;;;;;;;;;;17.90;99.90;;;;;;5068744;28;20015;-79
2021/07/28 05:59:59;;;;;;;;;;;17.90;99.90;;;;;;5064095;28;19912;-80
2021/07/28 06:02:24;;;;;;;;;;;17.90;99.90;;;;;;5085756;28;19917;-80
2021/07/28 06:04:50;;;;;;;;;;;17.90;99.90;;;;;;5061312;28;19913;-80
2021/07/28 06:07:15;;;;;;;;;;;17.90;99.90;;;;;;5061759;28;19919;-80
2021/07/28 06:09:41;;;;;;;;;;;18.00;99.90;;;;;;5089947;28;19913;-80
2021/07/28 06:12:07;;;;;;;;;;;18.00;99.90;;;;;;5066265;28;20361;-79
2021/07/28 06:14:32;;;;;;;;;;;18.00;99.90;;;;;;5060804;28;20289;-79
2021/07/28 06:16:58;;;;;;;;;;;18.10;99.90;;;;;;5067082;28;19920;-80
2021/07/28 06:19:23;;;;;;;;;;;18.10;99.90;;;;;;5085316;28;19920;-79
2021/07/28 06:21:49;;;;;;;;;;;18.10;99.90;;;;;;5081769;28;19917;-79
2021/07/28 06:24:14;;;;;;;;;;;18.10;99.90;;;;;;5085097;28;19916;-80
2021/07/28 06:26:40;;;;;;;;;;;18.30;99.90;;;;;;5083730;28;19919;-79
2021/07/28 06:29:05;;;;;;;;;;;18.40;99.90;;;;;;5081931;28;19935;-83
2021/07/28 06:31:31;;;;;;;;;;;18.40;99.90;;;;;;5085375;28;19924;-85
2021/07/28 06:33:56;;;;;;;;;;;18.60;99.90;;;;;;5085528;28;19901;-88
2021/07/28 06:36:22;;;;;;;;;;;18.90;99.90;;;;;;5090695;28;19929;-86
2021/07/28 06:38:47;;;;;;;;;;;19.10;99.90;;;;;;5091347;28;19901;-84
2021/07/28 06:41:13;;;;;;;;;;;19.30;99.90;;;;;;5086070;28;19917;-85
2021/07/28 06:43:38;;;;;;;;;;;19.80;99.90;;;;;;5086090;28;19901;-79
2021/07/28 06:46:04;;;;;;;;;;;20.20;99.90;;;;;;5086981;28;19912;-75
2021/07/28 06:48:29;;;;;;;;;;;20.80;99.90;;;;;;5074314;28;19944;-86
2021/07/28 06:50:55;;;;;;;;;;;21.40;99.90;;;;;;5068508;28;19920;-84
2021/07/28 06:53:20;;;;;;;;;;;22.10;99.90;;;;;;5088257;28;19912;-82
2021/07/28 06:55:46;;;;;;;;;;;21.90;99.90;;;;;;5095196;28;20288;-87
2021/07/28 06:58:12;;;;;;;;;;;21.70;99.90;;;;;;5069759;28;19913;-90
2021/07/28 07:00:37;;;;;;;;;;;21.20;99.90;;;;;;5069110;28;19920;-89
2021/07/28 07:03:03;;;;;;;;;;;20.80;99.90;;;;;;5067927;28;19913;-88
2021/07/28 07:05:28;;;;;;;;;;;20.60;99.90;;;;;;5072819;28;19919;-85
2021/07/28 07:07:54;;;;;;;;;;;20.30;99.90;;;;;;5066877;28;19919;-79
2021/07/28 07:10:20;;;;;;;;;;;20.10;99.90;;;;;;5060058;28;19913;-78
2021/07/28 07:12:45;;;;;;;;;;;19.90;99.90;;;;;;5066913;28;19920;-80
2021/07/28 07:15:11;;;;;;;;;;;20.50;99.90;;;;;;5062531;28;20304;-80
2021/07/28 07:17:37;;;;;;;;;;;20.90;99.90;;;;;;5065543;28;19921;-81
2021/07/28 07:20:02;;;;;;;;;;;20.70;99.90;;;;;;5061165;28;20391;-80
2021/07/28 07:22:28;;;;;;;;;;;20.30;99.90;;;;;;5064844;28;19973;-80
2021/07/28 07:24:53;;;;;;;;;;;19.90;99.90;;;;;;5061924;28;19920;-80
2021/07/28 07:27:19;;;;;;;;;;;19.50;99.90;;;;;;5068265;28;19912;-81
2021/07/28 07:29:46;;;;;;;;;;;19.30;99.90;;;;;;5065186;28;19916;-80
2021/07/28 07:32:11;;;;;;;;;;;19.20;99.90;;;;;;5064342;28;19913;-81
2021/07/28 07:34:37;;;;;;;;;;;19.00;99.90;;;;;;5068186;28;19916;-80
2021/07/28 07:37:02;;;;;;;;;;;18.90;99.90;;;;;;5071656;28;19912;-80
2021/07/28 07:39:28;;;;;;;;;;;18.90;99.90;;;;;;5070871;28;20006;-81
2021/07/28 07:41:54;;;;;;;;;;;18.90;99.90;;;;;;5074217;28;20355;-81
2021/07/28 07:44:19;;;;;;;;;;;19.00;99.90;;;;;;5064799;28;20277;-80
2021/07/28 07:46:45;;;;;;;;;;;19.20;99.90;;;;;;5066236;28;19937;-80
2021/07/28 07:49:10;;;;;;;;;;;19.30;99.90;;;;;;5068690;28;19913;-80
2021/07/28 07:51:36;;;;;;;;;;;19.40;99.90;;;;;;5065655;28;20284;-80
2021/07/28 07:54:01;;;;;;;;;;;19.60;99.90;;;;;;5067109;28;19913;-82
2021/07/28 07:56:28;;;;;;;;;;;19.90;99.90;;;;;;5070693;28;19962;-81
2021/07/28 07:58:54;;;;;;;;;;;20.10;99.90;;;;;;5064351;28;19955;-81
2021/07/28 08:01:19;;;;;;;;;;;20.10;99.90;;;;;;5062600;28;20008;-81
2021/07/28 08:03:45;;;;;;;;;;;20.10;99.90;;;;;;5068163;28;19923;-79
2021/07/28 08:06:10;;;;;;;;;;;20.10;99.90;;;;;;5067788;28;19913;-81
2021/07/28 08:08:36;;;;;;;;;;;20.00;99.90;;;;;;5064438;28;19920;-81
2021/07/28 08:11:11;;;;;;;;;;;19.80;99.90;;;;;;5067861;28;19913;-80
2021/07/28 08:13:37;;;;;;;;;;;19.80;99.90;;;;;;5067305;28;19967;-82
2021/07/28 08:16:10;;;;;;;;;;;19.70;99.90;;;;;;5061421;28;19951;-81
2021/07/28 08:18:35;;;;;;;;;;;19.70;99.90;;;;;;5065593;28;20346;-82
2021/07/28 08:21:01;;;;;;;;;;;19.70;99.90;;;;;;5059783;28;19920;-82
2021/07/28 08:23:27;;;;;;;;;;;19.70;99.90;;;;;;5066327;28;19919;-82
2021/07/28 08:25:52;;;;;;;;;;;19.70;99.90;;;;;;5062105;28;19912;-81
2021/07/28 08:28:18;;;;;;;;;;;19.80;99.90;;;;;;5068212;28;19912;-85
2021/07/28 08:30:44;;;;;;;;;;;19.90;99.90;;;;;;5059237;28;19912;-91
2021/07/28 08:33:09;;;;;;;;;;;20.00;99.90;;;;;;5064880;28;19913;-82
2021/07/28 08:35:35;;;;;;;;;;;19.90;99.90;;;;;;5066747;28;20346;-82
2021/07/28 08:38:00;;;;;;;;;;;19.80;99.90;;;;;;5066050;28;19913;-83
2021/07/28 08:40:26;;;;;;;;;;;19.80;99.90;;;;;;5070673;28;19912;-85
2021/07/28 08:42:53;;;;;;;;;;;19.80;99.90;;;;;;5065622;28;19966;-85
2021/07/28 08:45:19;;;;;;;;;;;19.70;99.90;;;;;;5067623;28;19913;-89
2021/07/28 08:47:45;;;;;;;;;;;19.60;99.90;;;;;;5063128;28;19916;-82
2021/07/28 08:50:11;;;;;;;;;;;19.60;99.90;;;;;;5060886;28;19977;-86
2021/07/28 08:52:38;;;;;;;;;;;19.60;99.90;;;;;;5062356;28;19912;-89
2021/07/28 08:55:04;;;;;;;;;;;19.50;99.90;;;;;;5064634;28;20292;-86
2021/07/28 08:57:32;;;;;;;;;;;19.40;99.90;;;;;;5061880;28;19912;-83
2021/07/28 08:59:57;;;;;;;;;;;19.40;99.90;;;;;;5060420;28;19951;-85
2021/07/28 09:02:23;;;;;;;;;;;19.30;99.90;;;;;;5068297;28;19919;-82
2021/07/28 09:04:49;;;;;;;;;;;19.40;99.90;;;;;;5061721;28;19913;-85
2021/07/28 09:07:15;;;;;;;;;;;19.40;99.90;;;;;;5069534;28;20273;-87
2021/07/28 09:09:47;;;;;;;;;;;19.50;99.90;;;;;;5059258;28;20007;-83
2021/07/28 09:12:13;;;;;;;;;;;19.40;99.90;;;;;;5059048;28;20042;-85
2021/07/28 09:14:49;;;;;;;;;;;19.40;99.90;;;;;;5060669;28;20393;-89
2021/07/28 09:17:18;;;;;;;;;;;19.40;99.90;;;;;;5058241;28;20020;-81
2021/07/28 09:19:46;;;;;;;;;;;19.40;99.90;;;;;;5065072;28;20054;-83
2021/07/28 09:22:12;;;;;;;;;;;19.40;99.90;;;;;;5065538;28;20284;-83
2021/07/28 09:24:38;;;;;;;;;;;19.30;99.90;;;;;;5064668;28;19913;-85
2021/07/28 09:27:03;;;;;;;;;;;19.30;99.90;;;;;;5059289;28;19912;-83
2021/07/28 09:29:30;;;;;;;;;;;19.20;99.90;;;;;;5066026;28;20003;-82
2021/07/28 09:32:03;;;;;;;;;;;19.20;99.90;;;;;;5070517;28;20391;-82
2021/07/28 09:34:36;;;;;;;;;;;19.20;99.90;;;;;;5073594;28;19920;-82
2021/07/28 09:37:04;;;;;;;;;;;19.20;99.90;;;;;;5073695;28;19936;-84
2021/07/28 09:39:29;;;;;;;;;;;19.30;99.90;;;;;;5074139;28;19974;-83
2021/07/28 09:41:56;;;;;;;;;;;19.50;99.90;;;;;;5070890;28;19920;-84
2021/07/28 09:44:32;;;;;;;;;;;19.60;99.90;;;;;;5060615;28;19913;-83
2021/07/28 09:47:06;;;;;;;;;;;19.80;99.90;;;;;;5068921;28;19919;-83
2021/07/28 09:49:31;;;;;;;;;;;20.00;99.90;;;;;;5073515;28;19913;-82
2021/07/28 09:51:57;;;;;;;;;;;20.20;99.90;;;;;;5064797;28;19913;-83
2021/07/28 09:54:26;;;;;;;;;;;20.30;99.90;;;;;;5074446;28;19913;-84
2021/07/28 09:56:56;;;;;;;;;;;20.50;99.90;;;;;;5077706;28;19913;-85
2021/07/28 09:59:24;;;;;;;;;;;20.60;99.90;;;;;;5066491;28;20392;-84
2021/07/28 10:01:51;;;;;;;;;;;20.70;99.90;;;;;;5065533;28;20007;-82
2021/07/28 10:04:18;;;;;;;;;;;20.60;99.90;;;;;;5068106;28;20323;-84
2021/07/28 10:06:46;;;;;;;;;;;20.60;99.90;;;;;;5075269;28;19935;-82
2021/07/28 10:09:12;;;;;;;;;;;20.60;99.90;;;;;;5060436;28;19920;-82
2021/07/28 10:11:39;;;;;;;;;;;20.50;99.90;;;;;;5066068;28;19919;-84
2021/07/28 10:14:05;;;;;;;;;;;20.40;99.90;;;;;;5066450;28;19969;-84
2021/07/28 10:16:33;;;;;;;;;;;20.40;99.90;;;;;;5073735;28;19917;-87
2021/07/28 10:18:59;;;;;;;;;;;20.40;99.90;;;;;;5068104;28;19912;-86
2021/07/28 10:21:25;;;;;;;;;;;20.60;99.90;;;;;;5064974;28;19909;-88
2021/07/28 10:23:51;;;;;;;;;;;20.80;99.90;;;;;;5071305;28;19919;-88
2021/07/28 10:26:17;;;;;;;;;;;21.00;99.90;;;;;;5072154;28;19958;-82
2021/07/28 10:28:46;;;;;;;;;;;21.00;99.90;;;;;;5065672;28;20375;-81
2021/07/28 10:31:13;;;;;;;;;;;21.00;99.90;;;;;;5065908;28;19920;-84
2021/07/28 10:33:51;;;;;;;;;;;21.00;99.90;;;;;;5064677;28;19913;-80
2021/07/28 10:36:18;;;;;;;;;;;20.90;99.90;;;;;;5066749;28;19928;-82
2021/07/28 10:38:52;;;;;;;;;;;20.80;99.90;;;;;;5059768;28;19920;-87
2021/07/28 10:41:36;;;;;;;;;;;20.90;99.90;;;;;;5066652;28;19979;-83
2021/07/28 10:44:13;;;;;;;;;;;20.80;99.90;;;;;;5065214;28;19912;-90
2021/07/28 10:46:54;;;;;;;;;;;20.70;99.90;;;;;;5066862;28;19912;-84
2021/07/28 10:49:35;;;;;;;;;;;20.70;99.90;;;;;;5067336;28;20377;-83
2021/07/28 10:52:04;;;;;;;;;;;20.60;99.90;;;;;;5068786;28;19919;-84
2021/07/28 10:54:45;;;;;;;;;;;21.00;99.90;;;;;;5065321;28;19916;-86
2021/07/28 10:57:29;;;;;;;;;;;21.40;99.90;;;;;;5072540;28;19912;-83
2021/07/28 10:59:55;;;;;;;;;;;21.40;99.90;;;;;;5077136;28;19963;-85
2021/07/28 11:02:20;;;;;;;;;;;21.40;99.90;;;;;;5069650;28;20657;-83
2021/07/28 11:04:46;;;;;;;;;;;21.20;99.90;;;;;;5068939;28;20003;-82
2021/07/28 11:07:11;;;;;;;;;;;21.20;99.90;;;;;;5070383;28;19912;-86
2021/07/28 11:09:37;;;;;;;;;;;21.40;99.90;;;;;;5068549;28;20368;-84
2021/07/28 11:12:03;;;;;;;;;;;21.40;99.90;;;;;;5072045;28;19944;-85
2021/07/28 11:14:29;;;;;;;;;;;21.30;99.90;;;;;;5065695;28;20019;-88
2021/07/28 11:16:55;;;;;;;;;;;21.20;99.90;;;;;;5076202;28;19916;-84
2021/07/28 11:19:20;;;;;;;;;;;21.10;99.90;;;;;;5062994;28;19920;-84
2021/07/28 11:21:47;;;;;;;;;;;21.10;99.90;;;;;;5068592;28;19921;-84
2021/07/28 11:24:12;;;;;;;;;;;21.10;99.90;;;;;;5068665;28;19948;-83
2021/07/28 11:26:47;;;;;;;;;;;21.10;99.90;;;;;;5070695;28;19912;-84
2021/07/28 11:29:18;;;;;;;;;;;21.20;99.90;;;;;;5064963;28;19913;-85
2021/07/28 11:31:44;;;;;;;;;;;21.40;99.90;;;;;;5066803;28;19951;-84
2021/07/28 11:34:14;;;;;;;;;;;21.40;99.90;;;;;;5073312;28;19936;-82
2021/07/28 11:36:41;;;;;;;;;;;21.40;99.90;;;;;;5076436;28;20385;-84
2021/07/28 11:39:14;;;;;;;;;;;21.40;99.90;;;;;;5067302;28;19919;-84
2021/07/28 11:41:40;;;;;;;;;;;21.30;99.90;;;;;;5065588;28;19912;-86
2021/07/28 11:44:05;;;;;;;;;;;21.30;99.90;;;;;;5067686;28;20281;-85
2021/07/28 11:46:31;;;;;;;;;;;21.40;99.90;;;;;;5093342;28;19912;-85
2021/07/28 11:48:57;;;;;;;;;;;21.60;99.90;;;;;;5068969;28;19912;-84
2021/07/28 11:51:24;;;;;;;;;;;21.70;99.90;;;;;;5061151;28;19920;-86
2021/07/28 11:53:50;;;;;;;;;;;21.60;99.90;;;;;;5065238;28;19913;-84
2021/07/28 11:56:16;;;;;;;;;;;21.50;99.90;;;;;;5071374;28;19926;-84
2021/07/28 11:58:42;;;;;;;;;;;21.40;99.90;;;;;;5072567;28;19935;-84
2021/07/28 12:01:24;;;;;;;;;;;21.40;99.90;;;;;;5066352;28;19920;-86
2021/07/28 12:03:53;;;;;;;;;;;21.40;99.90;;;;;;5072517;28;19917;-85
2021/07/28 12:06:28;;;;;;;;;;;21.50;99.90;;;;;;5061888;28;19935;-87
2021/07/28 12:09:04;;;;;;;;;;;21.50;99.90;;;;;;5071827;28;19966;-87
2021/07/28 12:11:29;;;;;;;;;;;21.50;99.90;;;;;;5068333;28;19920;-83
2021/07/28 12:14:01;;;;;;;;;;;21.50;99.90;;;;;;5066304;28;19916;-85
2021/07/28 12:16:38;;;;;;;;;;;21.60;99.90;;;;;;5069512;28;19916;-85
2021/07/28 12:19:05;;;;;;;;;;;21.60;99.90;;;;;;5066461;28;20003;-85
2021/07/28 12:21:50;;;;;;;;;;;21.40;99.90;;;;;;5063293;28;19946;-86
2021/07/28 12:24:16;;;;;;;;;;;21.30;99.90;;;;;;5071854;28;19970;-85
2021/07/28 12:26:48;;;;;;;;;;;21.50;99.90;;;;;;5063962;28;19913;-86
2021/07/28 12:29:32;;;;;;;;;;;21.50;99.90;;;;;;5070060;28;19920;-86
2021/07/28 12:31:57;;;;;;;;;;;21.50;99.90;;;;;;5070182;28;19920;-86
2021/07/28 12:34:23;;;;;;;;;;;21.40;99.90;;;;;;5085546;28;19912;-86
2021/07/28 12:36:48;;;;;;;;;;;21.40;99.90;;;;;;5088669;28;19900;-86
2021/07/28 12:39:14;;;;;;;;;;;21.30;99.90;;;;;;5071771;28;19920;-86
2021/07/28 12:41:40;;;;;;;;;;;21.20;99.90;;;;;;5076975;28;19920;-86
2021/07/28 12:44:05;;;;;;;;;;;21.30;99.90;;;;;;5081637;28;19920;-85
2021/07/28 12:46:31;;;;;;;;;;;21.20;99.90;;;;;;5083551;28;19917;-86
2021/07/28 12:48:56;;;;;;;;;;;21.20;99.90;;;;;;5085950;28;19908;-85
2021/07/28 12:51:22;;;;;;;;;;;21.20;99.90;;;;;;5089264;28;20335;-83
2021/07/28 12:53:49;;;;;;;;;;;21.20;99.90;;;;;;5086596;28;19917;-83
2021/07/28 12:56:14;;;;;;;;;;;21.10;99.90;;;;;;5085977;28;19925;-85
2021/07/28 12:58:40;;;;;;;;;;;21.00;99.90;;;;;;5082954;28;19923;-84
2021/07/28 13:01:05;;;;;;;;;;;20.90;99.90;;;;;;5088314;28;19927;-84
2021/07/28 13:03:33;;;;;;;;;;;20.70;99.90;;;;;;5089648;28;19916;-85
2021/07/28 13:06:09;;;;;;;;;;;20.50;99.90;;;;;;5088041;28;19900;-85
2021/07/28 13:08:35;;;;;;;;;;;20.40;99.90;;;;;;5093190;28;19984;-84
2021/07/28 13:11:00;;;;;;;;;;;20.40;99.90;;;;;;5089079;28;19901;-87
2021/07/28 13:13:26;;;;;;;;;;;20.40;99.90;;;;;;5090009;28;19917;-86
2021/07/28 13:15:52;;;;;;;;;;;20.50;99.90;;;;;;5085668;28;19909;-85
2021/07/28 13:18:17;;;;;;;;;;;20.60;99.90;;;;;;5088064;28;19912;-86
2021/07/28 13:20:43;;;;;;;;;;;20.70;99.90;;;;;;5107938;28;19901;-85
2021/07/28 13:23:09;;;;;;;;;;;20.80;99.90;;;;;;5090608;28;19952;-86
2021/07/28 13:25:34;;;;;;;;;;;20.90;99.90;;;;;;5087680;28;19913;-86
2021/07/28 13:28:00;;;;;;;;;;;21.00;99.90;;;;;;5084741;28;19984;-86
2021/07/28 13:30:27;;;;;;;;;;;21.00;99.90;;;;;;5087737;28;19908;-87
2021/07/28 13:32:52;;;;;;;;;;;21.10;99.90;;;;;;5083264;28;19968;-85
2021/07/28 13:35:18;;;;;;;;;;;21.40;99.90;;;;;;5089034;28;19950;-85
2021/07/28 13:37:44;;;;;;;;;;;21.60;99.90;;;;;;5079856;28;20497;-85
2021/07/28 13:40:10;;;;;;;;;;;21.60;99.90;;;;;;5072198;28;19920;-87
2021/07/28 13:42:43;;;;;;;;;;;21.60;99.90;;;;;;5066822;28;19981;-85
2021/07/28 13:45:10;;;;;;;;;;;21.70;99.90;;;;;;5073504;28;19952;-88
2021/07/28 13:47:36;;;;;;;;;;;22.00;99.90;;;;;;5067357;28;20277;-87
2021/07/28 13:50:02;;;;;;;;;;;22.20;99.90;;;;;;5062748;28;19913;-88
2021/07/28 13:52:28;;;;;;;;;;;22.30;99.90;;;;;;5069447;28;19920;-84
2021/07/28 13:54:53;;;;;;;;;;;22.20;99.90;;;;;;5070919;28;20023;-91
2021/07/28 13:57:21;;;;;;;;;;;22.00;99.90;;;;;;5068612;28;19919;-87
2021/07/28 13:59:47;;;;;;;;;;;21.80;99.90;;;;;;5067948;28;19912;-87
2021/07/28 14:02:13;;;;;;;;;;;21.60;99.90;;;;;;5065062;28;19913;-87
2021/07/28 14:04:39;;;;;;;;;;;21.40;99.90;;;;;;5072673;28;19928;-86
2021/07/28 14:07:05;;;;;;;;;;;21.30;99.90;;;;;;5061746;28;20277;-86
2021/07/28 14:09:30;;;;;;;;;;;21.00;99.90;;;;;;5063400;28;19920;-82
2021/07/28 14:11:57;;;;;;;;;;;20.40;99.90;;;;;;5063710;28;19912;-81
2021/07/28 14:14:23;;;;;;;;;;;19.70;99.90;;;;;;5069384;28;19993;-81
2021/07/28 14:16:48;;;;;;;;;;;19.20;99.90;;;;;;5065853;28;19921;-80
2021/07/28 14:19:17;;;;;;;;;;;18.70;99.90;;;;;;5072092;28;19921;-81
2021/07/28 14:21:46;;;;;;;;;;;18.40;99.90;;;;;;5074387;28;19912;-81